createdAt,value
2022-12-15T00:00:25.185Z,1.614
2022-12-15T00:01:23.060Z,1.603
2022-12-15T00:02:23.089Z,1.603
2022-12-15T00:03:23.126Z,1.625
2022-12-15T00:04:23.486Z,1.550
2022-12-15T00:05:23.297Z,1.603
2022-12-15T00:06:22.702Z,1.612
2022-12-15T00:07:23.039Z,1.562
2022-12-15T00:08:21.928Z,1.449
2022-12-15T00:09:29.375Z,1.541
2022-12-15T00:10:23.625Z,1.541
2022-12-15T00:11:23.262Z,1.603
2022-12-15T00:12:22.549Z,1.562
2022-12-15T00:13:44.519Z,1.544
2022-12-15T00:14:22.938Z,1.5
2022-12-15T00:15:23.547Z,1.517
2022-12-15T00:16:22.182Z,1.562
2022-12-15T00:17:22.627Z,1.562
2022-12-15T00:18:23.017Z,1.562
2022-12-15T00:19:22.512Z,1.570
2022-12-15T00:20:22.950Z,1.511
2022-12-15T00:21:23.544Z,1.517
2022-12-15T00:22:23.610Z,1.512
2022-12-15T00:23:22.827Z,1.526
2022-12-15T00:24:23.430Z,1.524
2022-12-15T00:25:22.912Z,1.457
2022-12-15T00:26:23.431Z,1.437
2022-12-15T00:27:22.490Z,1.437
2022-12-15T00:28:22.436Z,1.406
2022-12-15T00:29:23.177Z,1.468
2022-12-15T00:30:22.808Z,1.457
2022-12-15T00:31:23.822Z,1.510
2022-12-15T00:32:23.099Z,1.562
2022-12-15T00:33:22.304Z,1.531
2022-12-15T00:34:21.643Z,1.478
2022-12-15T00:35:22.285Z,1.468
2022-12-15T00:36:22.637Z,1.395
2022-12-15T00:37:23.160Z,1.437
2022-12-15T00:38:22.562Z,1.447
2022-12-15T00:39:22.235Z,1.406
2022-12-15T00:40:22.950Z,1.447
2022-12-15T00:41:23.448Z,1.468
2022-12-15T00:42:21.732Z,1.437
2022-12-15T00:43:22.898Z,1.437
2022-12-15T00:44:28.726Z,1.437
2022-12-15T00:45:23.231Z,1.437
2022-12-15T00:46:22.606Z,1.437
2022-12-15T00:47:23.007Z,1.437
2022-12-15T00:48:21.875Z,1.363
2022-12-15T00:49:23.466Z,1.291
2022-12-15T00:50:23.400Z,1.25
2022-12-15T00:51:22.545Z,1.270
2022-12-15T00:52:22.760Z,1.312
2022-12-15T00:53:23.182Z,1.332
2022-12-15T00:55:23.035Z,1.260
2022-12-15T00:56:21.904Z,1.353
2022-12-15T00:57:23.897Z,1.322
2022-12-15T00:58:23.760Z,1.260
2022-12-15T00:59:23.238Z,1.270
2022-12-15T01:00:22.671Z,1.25
2022-12-15T01:01:26.095Z,1.25
2022-12-15T01:02:23.360Z,1.25
2022-12-15T01:03:22.824Z,1.218
2022-12-15T01:04:23.813Z,1.187
2022-12-15T01:05:23.371Z,1.239
2022-12-15T01:06:22.741Z,1.197
2022-12-15T01:07:22.708Z,1.072
2022-12-15T01:08:22.884Z,1.187
2022-12-15T01:09:23.469Z,1.228
2022-12-15T01:10:22.825Z,1.228
2022-12-15T01:11:23.535Z,1.187
2022-12-15T01:12:22.397Z,1.103
2022-12-15T01:13:22.421Z,1.041
2022-12-15T01:14:22.770Z,1.125
2022-12-15T01:15:24.073Z,1.125
2022-12-15T01:16:21.511Z,1.145
2022-12-15T01:17:22.709Z,1.103
2022-12-15T01:18:23.044Z,1.082
2022-12-15T01:19:22.542Z,1.082
2022-12-15T01:20:23.289Z,1.166
2022-12-15T01:21:25.009Z,0.980
2022-12-15T01:22:22.410Z,1.156
2022-12-15T01:23:22.227Z,1.135
2022-12-15T01:24:22.902Z,1.125
2022-12-15T01:25:23.069Z,1.156
2022-12-15T01:26:21.704Z,1.135
2022-12-15T01:27:22.730Z,1.125
2022-12-15T01:28:23.103Z,1.125
2022-12-15T01:29:22.256Z,1.176
2022-12-15T01:30:22.888Z,1.166
2022-12-15T01:31:23.389Z,1.093
2022-12-15T01:32:22.559Z,1.187
2022-12-15T01:33:22.766Z,1.187
2022-12-15T01:34:23.529Z,1.25
2022-12-15T01:35:23.235Z,1.207
2022-12-15T01:36:22.406Z,1.197
2022-12-15T01:37:23.321Z,1.145
2022-12-15T01:38:22.688Z,1.166
2022-12-15T01:39:23.670Z,1.25
2022-12-15T01:40:23.295Z,1.25
2022-12-15T01:41:22.707Z,1.218
2022-12-15T01:42:23.301Z,1.123
2022-12-15T01:43:23.323Z,1.125
2022-12-15T01:44:22.797Z,1.125
2022-12-15T01:45:24.102Z,1.093
2022-12-15T01:46:22.283Z,1.099
2022-12-15T01:47:22.849Z,1.026
2022-12-15T01:48:23.303Z,1
2022-12-15T01:49:22.703Z,0.937
2022-12-15T01:50:23.821Z,1
2022-12-15T01:51:22.527Z,1
2022-12-15T01:52:22.245Z,0.962
2022-12-15T01:53:22.696Z,0.954
2022-12-15T01:54:23.338Z,1.062
2022-12-15T01:55:22.422Z,1.080
2022-12-15T01:56:23.598Z,1.049
2022-12-15T01:57:23.047Z,1
2022-12-15T01:58:21.831Z,0.949
2022-12-15T01:59:22.116Z,1
2022-12-15T02:00:37.455Z,1.062
2022-12-15T02:01:24.017Z,1.062
2022-12-15T02:02:22.910Z,1.051
2022-12-15T02:03:23.052Z,1.051
2022-12-15T02:04:23.323Z,1.082
2022-12-15T02:05:23.842Z,1.114
2022-12-15T02:06:23.345Z,1.031
2022-12-15T02:07:22.865Z,1.020
2022-12-15T02:08:22.881Z,0.989
2022-12-15T02:09:23.486Z,1.020
2022-12-15T02:10:22.705Z,1.051
2022-12-15T02:11:23.349Z,1.062
2022-12-15T02:12:22.347Z,1.062
2022-12-15T02:13:22.925Z,1.051
2022-12-15T02:14:22.911Z,1
2022-12-15T02:15:22.890Z,1
2022-12-15T02:16:23.274Z,0.936
2022-12-15T02:17:22.007Z,0.958
2022-12-15T02:18:21.681Z,0.968
2022-12-15T02:19:22.628Z,1.051
2022-12-15T02:20:23.032Z,1.062
2022-12-15T02:21:22.390Z,0.936
2022-12-15T02:22:22.153Z,0.875
2022-12-15T02:23:22.048Z,0.885
2022-12-15T02:24:22.378Z,0.885
2022-12-15T02:25:22.638Z,0.958
2022-12-15T02:26:23.232Z,1
2022-12-15T02:27:23.147Z,1
2022-12-15T02:28:22.116Z,0.885
2022-12-15T02:29:23.161Z,0.875
2022-12-15T02:30:22.841Z,0.936
2022-12-15T02:31:23.114Z,0.936
2022-12-15T02:32:22.644Z,0.936
2022-12-15T02:33:22.791Z,0.989
2022-12-15T02:34:22.900Z,0.968
2022-12-15T02:35:23.833Z,0.916
2022-12-15T02:36:23.192Z,0.853
2022-12-15T02:37:23.589Z,0.864
2022-12-15T02:38:22.959Z,0.801
2022-12-15T02:39:23.539Z,0.75
2022-12-15T02:40:22.956Z,0.833
2022-12-15T02:41:23.429Z,0.916
2022-12-15T02:42:22.478Z,0.885
2022-12-15T02:43:22.385Z,0.875
2022-12-15T02:44:22.863Z,0.916
2022-12-15T02:45:23.776Z,0.875
2022-12-15T02:47:23.673Z,0.885
2022-12-15T02:48:23.029Z,0.936
2022-12-15T02:49:22.618Z,0.968
2022-12-15T02:50:22.304Z,0.968
2022-12-15T02:51:22.736Z,0.916
2022-12-15T02:52:22.700Z,0.842
2022-12-15T02:53:22.624Z,0.843
2022-12-15T02:54:23.479Z,0.864
2022-12-15T02:55:22.821Z,0.885
2022-12-15T02:56:23.256Z,0.926
2022-12-15T02:57:22.491Z,0.864
2022-12-15T02:58:22.372Z,0.801
2022-12-15T02:59:22.228Z,0.895
2022-12-15T03:00:52.312Z,0.926
2022-12-15T03:01:23.747Z,0.926
2022-12-15T03:02:24.312Z,0.885
2022-12-15T03:03:22.726Z,0.853
2022-12-15T03:04:24.240Z,0.843
2022-12-15T03:05:22.603Z,0.875
2022-12-15T03:06:23.507Z,0.853
2022-12-15T03:07:22.418Z,0.801
2022-12-15T03:08:21.981Z,0.770
2022-12-15T03:09:21.800Z,0.811
2022-12-15T03:10:22.982Z,0.760
2022-12-15T03:11:21.735Z,0.728
2022-12-15T03:12:23.336Z,0.697
2022-12-15T03:13:22.373Z,0.801
2022-12-15T03:14:22.873Z,0.708
2022-12-15T03:15:23.759Z,0.75
2022-12-15T03:16:22.373Z,0.75
2022-12-15T03:17:23.041Z,0.760
2022-12-15T03:18:22.401Z,0.75
2022-12-15T03:19:22.469Z,0.794
2022-12-15T03:20:23.125Z,0.760
2022-12-15T03:21:23.517Z,0.791
2022-12-15T03:22:22.928Z,0.737
2022-12-15T03:23:24.016Z,0.75
2022-12-15T03:24:23.322Z,0.762
2022-12-15T03:25:22.975Z,0.695
2022-12-15T03:26:23.619Z,0.674
2022-12-15T03:27:23.234Z,0.686
2022-12-15T03:28:22.401Z,0.686
2022-12-15T03:29:23.013Z,0.686
2022-12-15T03:30:23.002Z,0.686
2022-12-15T03:31:22.446Z,0.75
2022-12-15T03:32:23.486Z,0.75
2022-12-15T03:33:23.228Z,0.75
2022-12-15T03:34:22.344Z,0.762
2022-12-15T03:35:22.110Z,0.776
2022-12-15T03:36:22.600Z,0.699
2022-12-15T03:37:22.379Z,0.781
2022-12-15T03:38:23.188Z,0.811
2022-12-15T03:39:22.919Z,0.791
2022-12-15T03:40:23.364Z,0.770
2022-12-15T03:41:22.819Z,0.75
2022-12-15T03:42:23.252Z,0.708
2022-12-15T03:43:22.775Z,0.583
2022-12-15T03:44:23.395Z,0.675
2022-12-15T03:45:22.781Z,0.75
2022-12-15T03:46:23.768Z,0.749
2022-12-15T03:47:22.918Z,0.686
2022-12-15T03:48:23.367Z,0.676
2022-12-15T03:49:22.901Z,0.676
2022-12-15T03:50:23.533Z,0.635
2022-12-15T03:51:23.038Z,0.666
2022-12-15T03:52:22.539Z,0.686
2022-12-15T03:53:23.512Z,0.686
2022-12-15T03:54:22.803Z,0.686
2022-12-15T03:55:23.268Z,0.666
2022-12-15T03:56:22.881Z,0.645
2022-12-15T03:57:23.386Z,0.728
2022-12-15T03:58:22.361Z,0.75
2022-12-15T03:59:22.679Z,0.666
2022-12-15T04:00:23.613Z,0.666
2022-12-15T04:01:23.243Z,0.728
2022-12-15T04:02:23.941Z,0.75
2022-12-15T04:03:23.026Z,0.75
2022-12-15T04:04:23.218Z,0.75
2022-12-15T04:05:23.073Z,0.728
2022-12-15T04:06:22.493Z,0.686
2022-12-15T04:07:22.829Z,0.656
2022-12-15T04:08:23.821Z,0.603
2022-12-15T04:09:23.209Z,0.708
2022-12-15T04:10:22.860Z,0.686
2022-12-15T04:11:23.483Z,0.676
2022-12-15T04:12:23.416Z,0.625
2022-12-15T04:13:23.166Z,0.625
2022-12-15T04:14:22.951Z,0.686
2022-12-15T04:15:23.749Z,0.676
2022-12-15T04:16:28.684Z,0.614
2022-12-15T04:17:24.153Z,0.614
2022-12-15T04:18:22.720Z,0.656
2022-12-15T04:19:37.391Z,0.603
2022-12-15T04:20:23.502Z,0.603
2022-12-15T04:21:28.340Z,0.635
2022-12-15T04:23:23.123Z,0.676
2022-12-15T04:24:22.743Z,0.583
2022-12-15T04:25:22.995Z,0.603
2022-12-15T04:26:21.798Z,0.625
2022-12-15T04:27:23.184Z,0.625
2022-12-15T04:28:22.720Z,0.625
2022-12-15T04:29:23.136Z,0.519
2022-12-15T04:30:23.021Z,0.603
2022-12-15T04:31:22.719Z,0.625
2022-12-15T04:32:23.579Z,0.686
2022-12-15T04:33:26.395Z,0.635
2022-12-15T04:34:22.984Z,0.625
2022-12-15T04:35:22.622Z,0.572
2022-12-15T04:36:23.396Z,0.561
2022-12-15T04:37:42.132Z,0.666
2022-12-15T04:38:22.391Z,0.666
2022-12-15T04:39:22.589Z,0.645
2022-12-15T04:40:23.212Z,0.583
2022-12-15T04:41:22.340Z,0.572
2022-12-15T04:42:23.293Z,0.593
2022-12-15T04:43:22.865Z,0.531
2022-12-15T04:44:23.689Z,0.510
2022-12-15T04:45:29.055Z,0.583
2022-12-15T04:46:23.325Z,0.583
2022-12-15T04:47:23.753Z,0.520
2022-12-15T04:48:23.329Z,0.520
2022-12-15T04:49:22.892Z,0.468
2022-12-15T04:50:23.386Z,0.437
2022-12-15T04:51:23.844Z,0.488
2022-12-15T04:52:21.901Z,0.561
2022-12-15T04:53:23.431Z,0.520
2022-12-15T04:54:22.689Z,0.5
2022-12-15T04:55:23.274Z,0.510
2022-12-15T04:57:22.671Z,0.517
2022-12-15T04:58:22.985Z,0.487
2022-12-15T04:59:21.810Z,0.5
2022-12-15T05:00:24.162Z,0.524
2022-12-15T05:01:23.919Z,0.561
2022-12-15T05:02:23.441Z,0.5
2022-12-15T05:03:38.484Z,0.549
2022-12-15T05:04:23.605Z,0.549
2022-12-15T05:05:23.276Z,0.551
2022-12-15T05:06:22.866Z,0.510
2022-12-15T05:07:23.346Z,0.479
2022-12-15T05:08:22.844Z,0.458
2022-12-15T05:09:23.087Z,0.479
2022-12-15T05:10:24.192Z,0.479
2022-12-15T05:11:22.672Z,0.468
2022-12-15T05:12:23.115Z,0.458
2022-12-15T05:13:23.293Z,0.437
2022-12-15T05:14:23.224Z,0.468
2022-12-15T05:15:23.392Z,0.479
2022-12-15T05:16:22.926Z,0.479
2022-12-15T05:17:21.932Z,0.562
2022-12-15T05:18:22.695Z,0.541
2022-12-15T05:19:23.607Z,0.520
2022-12-15T05:20:23.009Z,0.447
2022-12-15T05:21:23.049Z,0.437
2022-12-15T05:22:22.464Z,0.458
2022-12-15T05:23:23.093Z,0.479
2022-12-15T05:24:23.033Z,0.375
2022-12-15T05:25:55.412Z,0.416
2022-12-15T05:26:23.585Z,0.416
2022-12-15T05:27:23.851Z,0.437
2022-12-15T05:28:23.306Z,0.510
2022-12-15T05:29:23.188Z,0.510
2022-12-15T05:30:22.939Z,0.510
2022-12-15T05:31:23.732Z,0.510
2022-12-15T05:32:23.329Z,0.551
2022-12-15T05:33:22.849Z,0.593
2022-12-15T05:34:23.441Z,0.593
2022-12-15T05:35:22.782Z,0.509
2022-12-15T05:36:23.377Z,0.437
2022-12-15T05:37:23.485Z,0.447
2022-12-15T05:38:23.244Z,0.370
2022-12-15T05:39:22.946Z,0.416
2022-12-15T05:40:23.395Z,0.426
2022-12-15T05:41:23.004Z,0.405
2022-12-15T05:42:22.364Z,0.477
2022-12-15T05:43:26.328Z,0.458
2022-12-15T05:44:22.871Z,0.375
2022-12-15T05:45:23.564Z,0.426
2022-12-15T05:46:23.107Z,0.385
2022-12-15T05:47:22.305Z,0.479
2022-12-15T05:48:22.930Z,0.551
2022-12-15T05:49:23.236Z,0.520
2022-12-15T05:50:23.421Z,0.458
2022-12-15T05:51:21.974Z,0.510
2022-12-15T05:52:23.454Z,0.541
2022-12-15T05:53:23.407Z,0.405
2022-12-15T05:54:23.671Z,0.385
2022-12-15T05:55:24.117Z,0.479
2022-12-15T05:56:22.337Z,0.416
2022-12-15T05:57:23.053Z,0.395
2022-12-15T05:58:22.621Z,0.405
2022-12-15T05:59:23.293Z,0.437
2022-12-15T06:00:24.454Z,0.437
2022-12-15T06:01:23.414Z,0.468
2022-12-15T06:02:23.302Z,0.405
2022-12-15T06:03:23.384Z,0.416
2022-12-15T06:04:23.809Z,0.437
2022-12-15T06:05:23.513Z,0.437
2022-12-15T06:06:23.472Z,0.405
2022-12-15T06:07:22.592Z,0.375
2022-12-15T06:08:23.147Z,0.437
2022-12-15T06:09:21.901Z,0.5
2022-12-15T06:10:22.737Z,0.5
2022-12-15T06:11:22.837Z,0.479
2022-12-15T06:12:23.034Z,0.437
2022-12-15T06:13:22.466Z,0.416
2022-12-15T06:14:23.067Z,0.510
2022-12-15T06:15:22.891Z,0.531
2022-12-15T06:16:24.129Z,0.5
2022-12-15T06:17:23.776Z,0.489
2022-12-15T06:18:23.873Z,0.489
2022-12-15T06:19:26.127Z,0.405
2022-12-15T06:20:22.431Z,0.405
2022-12-15T06:21:23.504Z,0.375
2022-12-15T06:23:22.717Z,0.364
2022-12-15T06:24:28.660Z,0.395
2022-12-15T06:25:23.859Z,0.395
2022-12-15T06:26:23.675Z,0.437
2022-12-15T06:27:23.411Z,0.392
2022-12-15T06:28:23.151Z,0.337
2022-12-15T06:29:22.404Z,0.330
2022-12-15T06:30:23.469Z,0.349
2022-12-15T06:31:22.841Z,0.303
2022-12-15T06:32:22.979Z,0.337
2022-12-15T06:33:23.418Z,0.401
2022-12-15T06:34:23.427Z,0.312
2022-12-15T06:35:23.575Z,0.365
2022-12-15T06:36:22.068Z,0.449
2022-12-15T06:37:22.029Z,0.419
2022-12-15T06:38:30.406Z,0.437
2022-12-15T06:39:22.822Z,0.437
2022-12-15T06:40:23.968Z,0.412
2022-12-15T06:41:23.031Z,0.395
2022-12-15T06:42:22.204Z,0.437
2022-12-15T06:43:23.215Z,0.510
2022-12-15T06:44:22.683Z,0.437
2022-12-15T06:45:23.499Z,0.405
2022-12-15T06:46:22.670Z,0.447
2022-12-15T06:47:23.118Z,0.437
2022-12-15T06:48:22.677Z,0.437
2022-12-15T06:49:23.347Z,0.375
2022-12-15T06:50:23.347Z,0.416
2022-12-15T06:51:25.831Z,0.405
2022-12-15T06:52:23.944Z,0.405
2022-12-15T06:53:23.819Z,0.416
2022-12-15T06:54:23.910Z,0.468
2022-12-15T06:55:24.060Z,0.468
2022-12-15T06:56:25.849Z,0.468
2022-12-15T06:57:23.372Z,0.520
2022-12-15T06:58:42.017Z,0.531
2022-12-15T06:59:22.513Z,0.531
2022-12-15T07:00:43.180Z,0.468
2022-12-15T07:01:24.419Z,0.468
2022-12-15T07:02:36.902Z,0.520
2022-12-15T07:03:22.698Z,0.551
2022-12-15T07:04:24.271Z,0.520
2022-12-15T07:05:23.490Z,0.510
2022-12-15T07:06:22.809Z,0.458
2022-12-15T07:07:23.518Z,0.437
2022-12-15T07:08:27.096Z,0.468
2022-12-15T07:09:22.754Z,0.520
2022-12-15T07:10:23.597Z,0.541
2022-12-15T07:11:22.811Z,0.479
2022-12-15T07:12:23.209Z,0.468
2022-12-15T07:13:22.913Z,0.510
2022-12-15T07:14:23.998Z,0.572
2022-12-15T07:15:23.059Z,0.614
2022-12-15T07:16:23.027Z,0.561
2022-12-15T07:17:23.806Z,0.583
2022-12-15T07:18:23.617Z,0.583
2022-12-15T07:19:23.732Z,0.561
2022-12-15T07:20:28.641Z,0.593
2022-12-15T07:21:23.822Z,0.572
2022-12-15T07:22:23.699Z,0.603
2022-12-15T07:23:46.031Z,0.583
2022-12-15T07:24:22.929Z,0.583
2022-12-15T07:25:23.091Z,0.561
2022-12-15T07:26:23.140Z,0.614
2022-12-15T07:27:22.543Z,0.603
2022-12-15T07:28:25.916Z,0.5
2022-12-15T07:29:30.949Z,0.561
2022-12-15T07:30:24.097Z,0.561
2022-12-15T07:31:22.984Z,0.541
2022-12-15T07:32:22.583Z,0.551
2022-12-15T07:33:23.104Z,0.561
2022-12-15T07:34:23.470Z,0.561
2022-12-15T07:35:23.661Z,0.520
2022-12-15T07:36:23.361Z,0.551
2022-12-15T07:37:23.487Z,0.510
2022-12-15T07:38:22.625Z,0.458
2022-12-15T07:39:23.691Z,0.541
2022-12-15T07:40:23.949Z,0.561
2022-12-15T07:41:23.412Z,0.541
2022-12-15T07:42:23.372Z,0.572
2022-12-15T07:43:23.132Z,0.572
2022-12-15T07:44:23.597Z,0.561
2022-12-15T07:45:24.077Z,0.488
2022-12-15T07:46:23.964Z,0.405
2022-12-15T07:47:23.639Z,0.405
2022-12-15T07:48:23.422Z,0.5
2022-12-15T07:49:23.252Z,0.561
2022-12-15T07:50:23.639Z,0.531
2022-12-15T07:51:28.318Z,0.5
2022-12-15T07:52:23.293Z,0.5
2022-12-15T07:53:23.130Z,0.458
2022-12-15T07:54:23.101Z,0.458
2022-12-15T07:55:50.071Z,0.479
2022-12-15T07:56:22.303Z,0.510
2022-12-15T07:57:22.229Z,0.561
2022-12-15T07:58:22.890Z,0.561
2022-12-15T07:59:23.614Z,0.561
2022-12-15T08:00:24.688Z,0.520
2022-12-15T08:01:24.500Z,0.520
2022-12-15T08:02:24.477Z,0.524
2022-12-15T08:03:23.730Z,0.561
2022-12-15T08:04:24.169Z,0.574
2022-12-15T08:05:23.092Z,0.561
2022-12-15T08:06:22.772Z,0.561
2022-12-15T08:07:23.271Z,0.499
2022-12-15T08:08:24.540Z,0.437
2022-12-15T08:09:23.364Z,0.5
2022-12-15T08:10:23.206Z,0.5
2022-12-15T08:11:23.823Z,0.5
2022-12-15T08:12:23.233Z,0.487
2022-12-15T08:14:18.771Z,0.5
2022-12-15T08:14:29.563Z,0.526
2022-12-15T08:15:23.257Z,0.526
2022-12-15T08:16:23.690Z,0.5
2022-12-15T08:17:24.116Z,0.416
2022-12-15T08:18:23.195Z,0.447
2022-12-15T08:19:23.533Z,0.489
2022-12-15T08:20:23.838Z,0.458
2022-12-15T08:21:24.265Z,0.489
2022-12-15T08:22:23.197Z,0.5
2022-12-15T08:23:22.624Z,0.510
2022-12-15T08:24:23.616Z,0.541
2022-12-15T08:25:24.009Z,0.551
2022-12-15T08:26:28.416Z,0.561
2022-12-15T08:27:23.212Z,0.510
2022-12-15T08:28:22.733Z,0.447
2022-12-15T08:29:59.102Z,0.541
2022-12-15T08:30:22.721Z,0.541
2022-12-15T08:31:24.427Z,0.561
2022-12-15T08:32:23.017Z,0.531
2022-12-15T08:33:23.625Z,0.603
2022-12-15T08:34:23.823Z,0.614
2022-12-15T08:36:05.505Z,0.603
2022-12-15T08:36:24.379Z,0.603
2022-12-15T08:37:24.396Z,0.531
2022-12-15T08:38:23.685Z,0.593
2022-12-15T08:39:23.812Z,0.656
2022-12-15T08:40:22.604Z,0.686
2022-12-15T08:41:23.827Z,0.614
2022-12-15T08:42:23.487Z,0.625
2022-12-15T08:43:24.438Z,0.676
2022-12-15T08:44:24.494Z,0.686
2022-12-15T08:45:23.891Z,0.666
2022-12-15T08:46:23.894Z,0.603
2022-12-15T08:47:24.014Z,0.708
2022-12-15T08:48:23.008Z,0.697
2022-12-15T08:49:31.062Z,0.686
2022-12-15T08:50:23.152Z,0.686
2022-12-15T08:51:27.423Z,0.686
2022-12-15T08:52:22.482Z,0.686
2022-12-15T08:53:51.450Z,0.697
2022-12-15T08:54:23.375Z,0.697
2022-12-15T08:55:31.119Z,0.687
2022-12-15T08:56:23.568Z,0.687
2022-12-15T08:57:28.683Z,0.75
2022-12-15T08:58:23.947Z,0.75
2022-12-15T08:59:24.567Z,0.708
2022-12-15T09:00:24.748Z,0.686
2022-12-15T09:01:33.105Z,0.811
2022-12-15T09:02:24.558Z,0.811
2022-12-15T09:03:32.674Z,0.781
2022-12-15T09:04:24.671Z,0.781
2022-12-15T09:05:23.899Z,0.811
2022-12-15T09:06:24.143Z,0.791
2022-12-15T09:07:22.967Z,0.75
2022-12-15T09:08:23.490Z,0.75
2022-12-15T09:09:24.126Z,0.801
2022-12-15T09:10:23.854Z,0.791
2022-12-15T09:11:29.636Z,0.822
2022-12-15T09:12:24.134Z,0.833
2022-12-15T09:13:39.267Z,0.843
2022-12-15T09:14:29.478Z,0.843
2022-12-15T09:15:45.328Z,0.864
2022-12-15T09:16:23.686Z,0.843
2022-12-15T09:17:24.315Z,0.875
2022-12-15T09:18:23.019Z,0.864
2022-12-15T09:19:28.034Z,0.833
2022-12-15T09:21:21.665Z,0.811
2022-12-15T09:36:21.076Z,0.912
2022-12-15T09:37:20.845Z,1.016
2022-12-15T09:38:21.952Z,1.024
2022-12-15T09:39:21.643Z,0.954
2022-12-15T09:40:21.538Z,0.936
2022-12-15T09:41:40.224Z,0.875
2022-12-15T09:42:20.484Z,0.875
2022-12-15T09:47:20.910Z,0.916
2022-12-15T09:48:21.362Z,0.947
2022-12-15T09:49:43.039Z,1
2022-12-15T09:50:21.517Z,0.968
2022-12-15T09:51:20.640Z,1.041
2022-12-15T09:52:21.013Z,1.062
2022-12-15T09:54:01.614Z,1.041
2022-12-15T09:54:21.291Z,1.041
2022-12-15T09:55:21.505Z,0.989
2022-12-15T09:56:20.834Z,0.978
2022-12-15T09:57:21.397Z,1.031
2022-12-15T09:58:21.049Z,1.062
2022-12-15T09:59:21.122Z,1.072
2022-12-15T10:00:22.552Z,1.125
2022-12-15T10:01:22.765Z,1.187
2022-12-15T10:02:22.306Z,1.187
2022-12-15T10:03:21.760Z,1.176
2022-12-15T10:04:22.152Z,1.113
2022-12-15T10:05:21.457Z,1.093
2022-12-15T10:07:21.527Z,1.166
2022-12-15T10:08:21.610Z,1.187
2022-12-15T10:09:21.449Z,1.197
2022-12-15T10:10:21.244Z,1.228
2022-12-15T10:11:20.398Z,1.25
2022-12-15T10:12:20.832Z,1.25
2022-12-15T10:13:20.627Z,1.25
2022-12-15T10:14:20.569Z,1.25
2022-12-15T10:15:21.276Z,1.25
2022-12-15T10:16:21.244Z,1.25
2022-12-15T10:17:20.659Z,1.291
2022-12-15T10:18:22.043Z,1.375
2022-12-15T10:19:21.732Z,1.343
2022-12-15T10:20:21.961Z,1.312
2022-12-15T10:21:21.477Z,1.312
2022-12-15T10:22:21.139Z,1.312
2022-12-15T10:23:20.832Z,1.312
2022-12-15T10:24:51.712Z,1.322
2022-12-15T10:25:29.404Z,1.353
2022-12-15T10:26:21.432Z,1.291
2022-12-15T10:27:21.461Z,1.312
2022-12-15T10:28:20.880Z,1.312
2022-12-15T10:29:21.588Z,1.332
2022-12-15T10:30:22.141Z,1.375
2022-12-15T10:31:21.081Z,1.385
2022-12-15T10:32:21.234Z,1.406
2022-12-15T10:33:21.126Z,1.437
2022-12-15T10:34:21.043Z,1.375
2022-12-15T10:35:21.360Z,1.416
2022-12-15T10:36:21.130Z,1.437
2022-12-15T10:37:21.105Z,1.437
2022-12-15T10:38:20.480Z,1.437
2022-12-15T10:39:25.570Z,1.437
2022-12-15T10:40:21.312Z,1.437
2022-12-15T10:41:20.520Z,1.406
2022-12-15T10:42:20.704Z,1.437
2022-12-15T10:43:21.457Z,1.437
2022-12-15T10:44:24.810Z,1.437
2022-12-15T10:45:21.723Z,1.437
2022-12-15T10:46:21.719Z,1.437
2022-12-15T10:47:21.506Z,1.437
2022-12-15T10:48:21.438Z,1.437
2022-12-15T10:49:20.661Z,1.447
2022-12-15T10:50:24.719Z,1.437
2022-12-15T10:51:21.110Z,1.437
2022-12-15T10:52:20.915Z,1.5
2022-12-15T10:53:21.457Z,1.5
2022-12-15T10:54:21.163Z,1.5
2022-12-15T10:55:20.492Z,1.510
2022-12-15T10:56:21.045Z,1.5
2022-12-15T10:57:20.607Z,1.510
2022-12-15T10:58:21.462Z,1.512
2022-12-15T10:59:21.434Z,1.562
2022-12-15T11:00:23.063Z,1.562
2022-12-15T11:01:21.568Z,1.598
2022-12-15T11:02:31.144Z,1.562
2022-12-15T11:03:21.167Z,1.562
2022-12-15T11:04:21.857Z,1.562
2022-12-15T11:05:21.586Z,1.562
2022-12-15T11:06:20.922Z,1.562
2022-12-15T11:07:20.944Z,1.562
2022-12-15T11:08:20.838Z,1.549
2022-12-15T11:09:20.889Z,1.552
2022-12-15T11:11:26.078Z,1.588
2022-12-15T11:12:20.688Z,1.562
2022-12-15T11:13:21.394Z,1.562
2022-12-15T11:15:20.982Z,1.562
2022-12-15T11:17:21.408Z,1.562
2022-12-15T11:18:20.921Z,1.299
2022-12-15T11:19:21.482Z,1.551
2022-12-15T11:20:22.041Z,1.562
2022-12-15T11:21:21.801Z,1.562
2022-12-15T11:22:28.440Z,1.562
2022-12-15T11:23:23.480Z,1.562
2022-12-15T11:24:23.897Z,1.562
2022-12-15T11:25:24.066Z,1.562
2022-12-15T11:26:23.297Z,1.541
2022-12-15T11:27:23.278Z,1.531
2022-12-15T11:28:23.340Z,1.562
2022-12-15T11:29:23.562Z,1.562
2022-12-15T11:30:31.768Z,1.562
2022-12-15T11:31:23.643Z,1.562
2022-12-15T11:32:30.898Z,1.572
2022-12-15T11:33:23.184Z,1.572
2022-12-15T11:34:22.733Z,1.562
2022-12-15T11:35:23.353Z,1.5
2022-12-15T11:36:37.055Z,1.562
2022-12-15T11:37:23.144Z,1.562
2022-12-15T11:38:23.460Z,1.582
2022-12-15T11:39:24.413Z,1.656
2022-12-15T11:40:23.103Z,1.656
2022-12-15T11:41:23.418Z,1.625
2022-12-15T11:42:24.534Z,1.625
2022-12-15T11:43:22.755Z,1.562
2022-12-15T11:44:24.374Z,1.520
2022-12-15T11:45:23.483Z,1.541
2022-12-15T11:46:23.529Z,1.614
2022-12-15T11:47:23.603Z,1.582
2022-12-15T11:48:23.596Z,1.562
2022-12-15T11:49:23.359Z,1.593
2022-12-15T11:50:23.508Z,1.625
2022-12-15T11:51:23.449Z,1.593
2022-12-15T11:52:23.609Z,1.593
2022-12-15T11:53:23.406Z,1.562
2022-12-15T11:54:23.370Z,1.593
2022-12-15T11:55:29.568Z,1.614
2022-12-15T11:56:23.079Z,1.625
2022-12-15T11:57:23.103Z,1.625
2022-12-15T11:58:22.725Z,1.593
2022-12-15T11:59:23.252Z,1.625
2022-12-15T12:00:24.091Z,1.645
2022-12-15T12:01:22.898Z,1.625
2022-12-15T12:02:23.406Z,1.625
2022-12-15T12:03:23.604Z,1.676
2022-12-15T12:04:23.928Z,1.635
2022-12-15T12:05:24.520Z,1.614
2022-12-15T12:06:23.425Z,1.625
2022-12-15T12:07:24.134Z,1.635
2022-12-15T12:08:23.277Z,1.582
2022-12-15T12:09:23.031Z,1.562
2022-12-15T12:10:23.750Z,1.614
2022-12-15T12:11:24.279Z,1.625
2022-12-15T12:12:24.171Z,1.603
2022-12-15T12:13:23.831Z,1.582
2022-12-15T12:14:24.514Z,1.645
2022-12-15T12:15:23.970Z,1.635
2022-12-15T12:16:23.859Z,1.687
2022-12-15T12:17:24.667Z,1.687
2022-12-15T12:18:23.724Z,1.687
2022-12-15T12:19:23.639Z,1.666
2022-12-15T12:20:24.371Z,1.625
2022-12-15T12:21:23.589Z,1.625
2022-12-15T12:22:23.438Z,1.625
2022-12-15T12:23:23.550Z,1.625
2022-12-15T12:24:24.894Z,1.625
2022-12-15T12:25:23.476Z,1.656
2022-12-15T12:26:23.954Z,1.687
2022-12-15T12:27:23.924Z,1.697
2022-12-15T12:28:22.849Z,1.699
2022-12-15T12:29:23.360Z,1.687
2022-12-15T12:30:23.982Z,1.687
2022-12-15T12:31:23.293Z,1.695
2022-12-15T12:32:23.158Z,1.687
2022-12-15T12:33:23.185Z,1.741
2022-12-15T12:34:22.865Z,1.75
2022-12-15T12:35:41.244Z,1.75
2022-12-15T12:36:24.112Z,1.75
2022-12-15T12:37:22.774Z,1.731
2022-12-15T12:38:23.782Z,1.687
2022-12-15T12:39:23.362Z,1.739
2022-12-15T12:40:23.633Z,1.75
2022-12-15T12:41:22.485Z,1.75
2022-12-15T12:42:23.972Z,1.75
2022-12-15T12:43:23.867Z,1.739
2022-12-15T12:44:24.929Z,1.760
2022-12-15T12:45:24.737Z,1.812
2022-12-15T12:46:24.240Z,1.812
2022-12-15T12:47:23.504Z,1.760
2022-12-15T12:48:23.795Z,1.739
2022-12-15T12:49:26.637Z,1.75
2022-12-15T12:50:23.693Z,1.75
2022-12-15T12:51:23.578Z,1.75
2022-12-15T12:52:23.473Z,1.75
2022-12-15T12:53:23.163Z,1.75
2022-12-15T12:54:22.500Z,1.75
2022-12-15T12:55:23.569Z,1.75
2022-12-15T12:56:23.542Z,1.75
2022-12-15T12:57:23.567Z,1.75
2022-12-15T12:58:23.535Z,1.75
2022-12-15T12:59:23.516Z,1.75
2022-12-15T13:00:24.614Z,1.760
2022-12-15T13:01:25.004Z,1.760
2022-12-15T13:02:23.566Z,1.801
2022-12-15T13:03:24.059Z,1.75
2022-12-15T13:04:23.435Z,1.75
2022-12-15T13:05:24.254Z,1.791
2022-12-15T13:06:23.633Z,1.760
2022-12-15T13:07:23.852Z,1.75
2022-12-15T13:08:24.012Z,1.75
2022-12-15T13:09:23.735Z,1.75
2022-12-15T13:10:24.579Z,1.75
2022-12-15T13:11:23.747Z,1.75
2022-12-15T13:13:00.444Z,1.75
2022-12-15T13:13:23.217Z,1.75
2022-12-15T13:14:32.813Z,1.75
2022-12-15T13:15:24.502Z,1.75
2022-12-15T13:16:23.985Z,1.75
2022-12-15T13:18:23.765Z,1.75
2022-12-15T13:19:23.634Z,1.812
2022-12-15T13:20:23.215Z,1.791
2022-12-15T13:21:22.918Z,1.75
2022-12-15T13:22:24.619Z,1.75
2022-12-15T13:23:23.783Z,1.75
2022-12-15T13:24:24.653Z,1.75
2022-12-15T13:25:23.980Z,1.739
2022-12-15T13:26:24.187Z,1.781